Аэропорт: Наримановка. Костанай

ICAO: UAUU

METAR:
2020-06-04 05:00:00
UAUU 040500Z 03005MPS 350V090 CAVOK 18/04 Q1019 R33/CLRD70 NOSIG RMK QFE748/0998
METAR:
2020-06-04 02:00:00
TAF UAUU 040200Z 0403/0412 02003G08MPS 9999 SCT040 TEMPO 0406/0412 03006G12MPS